地図

経路データ

SID SEASON NUMBER BASIN SUBBASIN NAME ISO_TIME NATURE LAT LON WMO_WIND WMO_PRES WMO_AGENCY TRACK_TYPE DIST2LAND LANDFALL IFLAG USA_AGENCY USA_ATCF_ID USA_LAT USA_LON USA_RECORD USA_STATUS USA_WIND USA_PRES USA_SSHS USA_R34_NE USA_R34_SE USA_R34_SW USA_R34_NW USA_R50_NE USA_R50_SE USA_R50_SW USA_R50_NW USA_R64_NE USA_R64_SE USA_R64_SW USA_R64_NW USA_POCI USA_ROCI USA_RMW USA_EYE TOKYO_LAT TOKYO_LON TOKYO_GRADE TOKYO_WIND TOKYO_PRES TOKYO_R50_DIR TOKYO_R50_LONG TOKYO_R50_SHORT TOKYO_R30_DIR TOKYO_R30_LONG TOKYO_R30_SHORT TOKYO_LAND CMA_LAT CMA_LON CMA_CAT CMA_WIND CMA_PRES HKO_LAT HKO_LON HKO_CAT HKO_WIND HKO_PRES NEWDELHI_LAT NEWDELHI_LON NEWDELHI_GRADE NEWDELHI_WIND NEWDELHI_PRES NEWDELHI_CI NEWDELHI_DP NEWDELHI_POCI REUNION_LAT REUNION_LON REUNION_TYPE REUNION_WIND REUNION_PRES REUNION_TNUM REUNION_CI REUNION_RMW REUNION_R34_NE REUNION_R34_SE REUNION_R34_SW REUNION_R34_NW REUNION_R50_NE REUNION_R50_SE REUNION_R50_SW REUNION_R50_NW REUNION_R64_NE REUNION_R64_SE REUNION_R64_SW REUNION_R64_NW BOM_LAT BOM_LON BOM_TYPE BOM_WIND BOM_PRES BOM_TNUM BOM_CI BOM_RMW BOM_R34_NE BOM_R34_SE BOM_R34_SW BOM_R34_NW BOM_R50_NE BOM_R50_SE BOM_R50_SW BOM_R50_NW BOM_R64_NE BOM_R64_SE BOM_R64_SW BOM_R64_NW BOM_ROCI BOM_POCI BOM_EYE BOM_POS_METHOD BOM_PRES_METHOD NADI_LAT NADI_LON NADI_CAT NADI_WIND NADI_PRES WELLINGTON_LAT WELLINGTON_LON WELLINGTON_WIND WELLINGTON_PRES DS824_LAT DS824_LON DS824_STAGE DS824_WIND DS824_PRES TD9636_LAT TD9636_LON TD9636_STAGE TD9636_WIND TD9636_PRES TD9635_LAT TD9635_LON TD9635_WIND TD9635_PRES TD9635_ROCI NEUMANN_LAT NEUMANN_LON NEUMANN_CLASS NEUMANN_WIND NEUMANN_PRES MLC_LAT MLC_LON MLC_CLASS MLC_WIND MLC_PRES USA_GUST BOM_GUST BOM_GUST_PER REUNION_GUST REUNION_GUST_PER USA_SEAHGT USA_SEARAD_NE USA_SEARAD_SE USA_SEARAD_SW USA_SEARAD_NW STORM_SPEED STORM_DIR
1948301N16148 1948 80 WP MM PAT 1948-10-27 06:00:00 TS 16.0000 147.500 main 2027 2027 O________O_O__ jtwc_wp WP211948 16.0000 147.500 40 0 16.0000 147.500 TC 40 16.0000 147.500 40 1000 300 14 271
1948301N16148 1948 80 WP MM PAT 1948-10-27 09:00:00 TS 16.0081 146.780 main 2027 2027 P________P_P__ WP211948 16.0081 146.780 40 0 16.0081 146.780 TC 40 16.0081 146.780 40 1000 270 14 274
1948301N16148 1948 80 WP MM PAT 1948-10-27 12:00:00 TS 16.1000 146.100 main 2039 2039 O________OOO__ jtwc_wp WP211948 16.1000 146.100 40 0 16.1000 146.100 TC 40 16.1000 146.100 2 40 16.1000 146.100 40 1000 240 13 284
1948301N16148 1948 80 WP MM PAT 1948-10-27 15:00:00 TS 16.3243 145.489 main 2064 2064 P________PPP__ WP211948 16.3272 145.485 40 0 16.3272 145.485 TC 40 16.3071 145.513 2 40 16.3272 145.485 40 1000 240 12 293
1948301N16148 1948 80 WP MM PAT 1948-10-27 18:00:00 TS 16.5842 144.904 main 2086 2040 O________OPO__ jtwc_wp WP211948 16.6000 144.900 40 0 16.6000 144.900 TC 40 16.5208 144.921 2 40 16.6000 144.900 40 1000 240 12 293
1948301N16148 1948 80 WP MM PAT 1948-10-27 21:00:00 TS 16.7984 144.299 main 2040 1995 P________PPP__ WP211948 16.8149 144.292 40 0 16.8149 144.292 TC 40 16.7491 144.318 2 40 16.8149 144.292 40 999 210 12 290
1948301N16148 1948 80 WP MM PAT 1948-10-28 00:00:00 TS 17.0000 143.700 main 1995 1965 O________OOO__ jtwc_wp WP211948 17.0000 143.700 40 0 17.0000 143.700 TC 40 17.0000 143.700 2 40 17.0000 143.700 40 999 180 12 287
1948301N16148 1948 80 WP MM PAT 1948-10-28 03:00:00 TS 17.1381 143.134 main 1961 1911 P________PPP__ WP211948 17.0897 143.157 42 0 17.0897 143.157 TC 42 17.2833 143.067 2 42 17.0897 143.157 42 998 180 12 289
1948301N16148 1948 80 WP MM PAT 1948-10-28 06:00:00 TS 17.3788 142.560 main 1911 1845 O________OPO__ jtwc_wp WP211948 17.3000 142.600 45 0 17.3000 142.600 TC 45 17.6154 142.439 2 45 17.3000 142.600 45 997 180 14 302
1948301N16148 1948 80 WP MM PAT 1948-10-28 09:00:00 TS 17.8726 141.912 main 1834 1750 P________PPP__ WP211948 17.8252 141.936 47 0 17.8252 141.936 TC 47 18.0147 141.842 2 47 17.8252 141.936 47 996 240 16 313
1948301N16148 1948 80 WP MM PAT 1948-10-28 12:00:00 TS 18.5000 141.300 main 1750 1665 O________OOO__ jtwc_wp WP211948 18.5000 141.300 50 0 18.5000 141.300 TC 50 18.5000 141.300 2 50 18.5000 141.300 50 995 300 16 320
1948301N16148 1948 80 WP MM PAT 1948-10-28 15:00:00 TS 19.1342 140.808 main 1665 1577 P________PPP__ WP211948 19.1347 140.805 50 0 19.1347 140.805 TC 50 19.1327 140.819 2 50 19.1347 140.805 50 994 360 16 327
1948301N16148 1948 80 WP MM PAT 1948-10-28 18:00:00 TS 19.8104 140.399 main 1577 1488 O________OPO__ jtwc_wp WP211948 19.8000 140.400 50 0 19.8000 140.400 TC 50 19.8417 140.396 2 50 19.8000 140.400 50 993 420 16 332
1948301N16148 1948 80 WP MM PAT 1948-10-28 21:00:00 TS 20.5530 140.016 main 1479 1406 P________PPP__ WP211948 20.5524 140.013 50 0 20.5524 140.013 TC 50 20.5549 140.025 2 50 20.5524 140.013 50 992 420 15 335
1948301N16148 1948 80 WP MM PAT 1948-10-29 00:00:00 TS 21.2000 139.700 main 1406 1367 O________OOO__ jtwc_wp WP211948 21.2000 139.700 50 0 21.2000 139.700 TC 50 21.2000 139.700 2 50 21.2000 139.700 50 991 420 11 333
1948301N16148 1948 80 WP MM PAT 1948-10-29 03:00:00 TS 21.5640 139.463 main 1357 1327 P________PPP__ WP211948 21.5298 139.492 50 0 21.5298 139.492 TC 50 21.6665 139.377 2 52 21.5298 139.492 50 990 420 8 328
1948301N16148 1948 80 WP MM PAT 1948-10-29 06:00:00 TS 21.8649 139.250 main 1318 1264 O________OPO__ jtwc_wp WP211948 21.8000 139.300 50 0 21.8000 139.300 TC 50 22.0595 139.101 2 55 21.8000 139.300 50 989 420 9 328
1948301N16148 1948 80 WP MM PAT 1948-10-29 09:00:00 TS 22.3139 138.963 main 1264 1200 P________PPP__ WP211948 22.2776 138.993 55 0 22.2776 138.993 TC 55 22.4229 138.874 2 57 22.2776 138.993 55 988 420 11 331
1948301N16148 1948 80 WP MM PAT 1948-10-29 12:00:00 TS 22.8000 138.700 main 1200 1152 O________OOO__ jtwc_wp WP211948 22.8000 138.700 60 0 22.8000 138.700 TC 60 22.8000 138.700 2 60 22.8000 138.700 60 987 420 10 335
1948301N16148 1948 80 WP MM PAT 1948-10-29 15:00:00 TS 23.2243 138.498 main 1152 1110 P________PPP__ WP211948 23.2499 138.505 60 0 23.2499 138.505 TC 60 23.1474 138.477 2 58 23.2499 138.505 60 987 390 9 341
1948301N16148 1948 80 WP MM PAT 1948-10-29 18:00:00 TS 23.6579 138.379 main 1101 1068 O________OPO__ jtwc_wp WP211948 23.7000 138.400 60 0 23.7000 138.400 TC 60 23.5317 138.317 2 57 23.7000 138.400 60 987 360 9 349
1948301N16148 1948 80 WP MM PAT 1948-10-29 21:00:00 TS 24.0775 138.318 main 1059 1003 P________PPP__ WP211948 24.0949 138.333 57 0 24.0949 138.333 TC 57 24.0251 138.274 2 56 24.0949 138.333 57 987 330 10 1
1948301N16148 1948 80 WP MM PAT 1948-10-30 00:00:00 TS 24.7000 138.400 main 1003 900 O________OOO__ jtwc_wp WP211948 24.7000 138.400 55 0 24.7000 138.400 TC 55 24.7000 138.400 2 55 24.7000 138.400 55 988 300 17 9
1948301N16148 1948 80 WP MM PAT 1948-10-30 03:00:00 TS 25.7422 138.613 main 900 787 P________PPP__ WP211948 25.7595 138.581 52 0 25.7595 138.581 TC 52 25.6903 138.706 2 53 25.7595 138.581 52 988 330 23 14
1948301N16148 1948 80 WP MM PAT 1948-10-30 06:00:00 TS 26.9629 139.049 main 777 698 O________OPO__ jtwc_wp WP211948 27.0000 139.000 50 0 27.0000 139.000 TC 50 26.8516 139.196 2 52 27.0000 139.000 50 989 360 26 23
1948301N16148 1948 80 WP MM PAT 1948-10-30 09:00:00 TS 28.1245 139.747 main 698 634 P________PPP__ WP211948 28.1454 139.716 50 0 28.1454 139.716 TC 50 28.0619 139.839 2 51 28.1454 139.716 50 990 330 26 31
1948301N16148 1948 80 WP MM PAT 1948-10-30 12:00:00 TS 29.2000 140.600 main 625 553 O________OOO__ jtwc_wp WP211948 29.2000 140.600 50 0 29.2000 140.600 TC 50 29.2000 140.600 2 50 29.2000 140.600 50 991 300 25 36
1948301N16148 1948 80 WP MM PAT 1948-10-30 15:00:00 TS 30.1195 141.428 main 553 498 P________PPP__ WP211948 30.1016 141.422 50 0 30.1016 141.422 TC 50 30.1732 141.446 2 50 30.1016 141.422 50 991 270 23 41
1948301N16148 1948 80 WP MM PAT 1948-10-30 18:00:00 TS 30.9215 142.312 main 498 472 O________OPO__ jtwc_wp WP211948 30.9000 142.300 50 0 30.9000 142.300 TC 50 31.0002 142.356 2 50 30.9000 142.300 50 992 240 21 45
1948301N16148 1948 80 WP MM PAT 1948-10-30 21:00:00 TS 31.6159 143.179 main 477 466 P________PPP__ WP211948 31.5771 143.124 50 0 31.5771 143.124 TC 50 31.7272 143.313 2 50 31.6594 143.269 50 993 240 22 49
1948301N16148 1948 80 WP MM PAT 1948-10-31 00:00:00 TS 32.4000 144.300 main 476 475 O________OOO__ jtwc_wp WP211948 32.4000 144.300 50 0 32.4000 144.300 TC 50 32.4000 144.300 2 50 32.4000 144.300 50 994 240 33 53
1948301N16148 1948 80 WP MM PAT 1948-10-31 03:00:00 TS 33.5922 146.248 main 537 537 P________P____ WP211948 33.5922 146.248 50 0 33.5922 146.248 TC 50 2 44 53
1948301N16148 1948 80 WP MM PAT 1948-10-31 06:00:00 TS 35.0000 148.500 main 691 691 O________O____ jtwc_wp WP211948 35.0000 148.500 50 0 35.0000 148.500 TC 50 2 45 50
1948301N16148 1948 80 WP MM PAT 1948-10-31 09:00:00 TS 36.4642 150.486 main 806 806 P________P____ WP211948 36.4642 150.486 47 0 36.4642 150.486 TC 47 2 44 47
1948301N16148 1948 80 WP MM PAT 1948-10-31 12:00:00 TS 38.0000 152.500 main 825 788 O________O____ jtwc_wp WP211948 38.0000 152.500 45 0 38.0000 152.500 TC 45 45 47
1948301N16148 1948 80 WP MM PAT 1948-10-31 15:00:00 TS 39.5205 154.674 main 791 768 P________P____ WP211948 39.5205 154.674 42 0 39.5205 154.674 TC 42 46 49
1948301N16148 1948 80 WP MM PAT 1948-10-31 18:00:00 TS 41.0000 157.000 main 773 O________O____ jtwc_wp WP211948 41.0000 157.000 40 0 41.0000 157.000 TC 40 46 50

デジタル台風データ・検索

IBTrACS Databaseについて

本データベースは、米国NOAAが公開する1842年以降の世界の熱帯低気圧のベストトラックデータアーカイブInternational Best Track Archive for Climate Stewardship (IBTrACS)を、ウェブで閲覧しやすい形式に変換したものです。

最終更新日:2021-11-26